createdAt,value
2022-11-25T09:05:16.783Z,68.90
2022-11-25T09:13:40.114Z,38.10
2022-11-25T09:22:03.247Z,34.80
2022-11-25T09:30:27.601Z,40.30
2022-11-25T09:38:51.927Z,54.80
2022-11-25T09:47:54.366Z,48.80
2022-11-25T09:56:33.088Z,52.30
2022-11-25T10:05:18.703Z,60.40
2022-11-25T10:13:52.763Z,112.10
2022-11-25T10:22:42.833Z,64.90
2022-11-25T10:31:18.408Z,55.00
2022-11-25T10:39:41.470Z,55.70
2022-11-25T10:48:15.052Z,53.10
2022-11-25T10:56:51.861Z,62.00
2022-11-25T11:05:18.422Z,50.40
2022-11-25T11:13:41.673Z,54.10
2022-11-25T11:22:18.020Z,66.10
2022-11-25T11:30:56.622Z,58.80
2022-11-25T11:39:47.718Z,64.00
2022-11-25T11:48:29.493Z,65.20
2022-11-25T11:57:15.031Z,71.40
2022-11-25T12:05:38.862Z,60.90
2022-11-25T12:14:11.975Z,67.10
2022-11-25T12:22:47.347Z,80.60
2022-11-25T12:32:03.896Z,84.90
2022-11-25T12:40:55.671Z,86.70
2022-11-25T12:49:27.555Z,71.10
2022-11-25T12:58:23.089Z,71.20
2022-11-25T13:07:04.855Z,78.60
2022-11-25T13:15:31.585Z,82.10
2022-11-25T13:23:58.851Z,80.70
2022-11-25T13:32:37.881Z,90.30
2022-11-25T13:41:21.232Z,95.70
2022-11-25T13:49:55.326Z,107.10
2022-11-25T13:58:33.323Z,107.20
2022-11-25T14:07:20.925Z,114.20
2022-11-25T14:16:08.491Z,98.50
2022-11-25T14:24:39.834Z,109.20
2022-11-25T14:33:05.564Z,120.20
2022-11-25T14:41:32.761Z,116.80
2022-11-25T14:58:50.721Z,151.40
2022-11-25T15:15:45.685Z,163.90
2022-11-25T15:24:25.468Z,134.30
2022-11-25T15:32:49.728Z,121.30
2022-11-25T15:41:34.532Z,122.30
2022-11-25T15:50:03.630Z,135.60
2022-11-25T15:58:26.682Z,126.50
2022-11-25T16:06:57.445Z,116.20
2022-11-25T16:15:48.141Z,150.30
2022-11-25T16:24:35.434Z,130.80
2022-11-25T16:32:58.927Z,121.40
2022-11-25T16:41:25.325Z,177.70
2022-11-25T16:49:48.772Z,136.60
2022-11-25T16:58:19.898Z,132.80
2022-11-25T17:06:50.577Z,160.70
2022-11-25T17:15:35.986Z,162.20
2022-11-25T17:24:02.899Z,131.30
2022-11-25T17:32:26.927Z,133.60
2022-11-25T17:40:50.792Z,115.40
2022-11-25T17:49:15.592Z,118.20
2022-11-25T17:57:39.397Z,118.90
2022-11-25T18:06:03.263Z,116.70
2022-11-25T18:14:33.477Z,126.90
2022-11-25T18:22:56.524Z,127.60
2022-11-25T18:31:19.695Z,107.60
2022-11-25T18:39:43.776Z,109.50
2022-11-25T18:48:17.293Z,137.90
2022-11-25T18:56:41.321Z,130.30
2022-11-25T19:05:20.013Z,109.60
2022-11-25T19:13:48.632Z,112.90
2022-11-25T19:22:16.024Z,120.80
2022-11-25T19:30:39.420Z,96.10
2022-11-25T19:39:02.436Z,93.70
2022-11-25T19:47:27.489Z,108.50
2022-11-25T19:55:51.340Z,124.70
2022-11-25T20:04:20.338Z,105.20
2022-11-25T20:12:43.611Z,104.90
2022-11-25T20:21:06.715Z,103.70
2022-11-25T20:29:30.747Z,129.80
2022-11-25T20:37:54.583Z,95.20
2022-11-25T20:46:25.244Z,100.10
2022-11-25T20:54:48.329Z,101.70
2022-11-25T21:03:11.390Z,116.70
2022-11-25T21:11:34.638Z,103.10
2022-11-25T21:19:58.672Z,107.80
2022-11-25T21:28:26.717Z,111.60
2022-11-25T21:36:53.215Z,116.80
2022-11-25T21:45:17.322Z,125.80
2022-11-25T21:53:40.639Z,127.00
2022-11-25T22:02:15.964Z,113.40
2022-11-25T22:10:41.929Z,129.40
2022-11-25T22:19:04.923Z,132.20
2022-11-25T22:27:36.417Z,115.70
2022-11-25T22:35:59.941Z,103.50
2022-11-25T22:44:33.084Z,99.30
2022-11-25T22:52:57.732Z,109.30
2022-11-25T23:01:20.729Z,115.90
2022-11-25T23:09:44.838Z,101.20
2022-11-25T23:18:14.852Z,109.40
2022-11-25T23:26:37.888Z,114.90
2022-11-25T23:35:01.072Z,89.90
2022-11-25T23:43:24.026Z,96.00
2022-11-25T23:51:47.312Z,102.00
